Cliftonville, Mississippi
Current Conditions -  °F | °C
As of 5:35 AM on Tuesday 27 Jan 2015 (Local Time) from KGTR Reporting Station
Clear Clear  
Wind Chill: 37°   Ceiling: Unl
Heat Index: 41°   Visibility: 10mi
Dew Point: 34°   Wind: 6mph
Humidity: 76%   Direction: 310°NW
Pressure: 29.99"   Gusts: NA
Location:  33.2136°N, 88.5275°W
Report Text: KGTR 271135Z AUTO 31005KT 10SM CLR 05/01 A2999 RMK AO1
Loading
Personal Weather Stations






























Interactive Weather Map New forecast layout! Learn more

10-Day Weather Forecast

Advertisements
Track Severe Weather on mobile